aviador You're here:

PACZ Decoded Metar

CAPE ROMANZOF in AK, USA
Report Time2017-11-21 05:55:00
UTC Time2017-11-21 06:17:29
Flight Rules mvfr MVFR
Wind150° at 32 Gusting to 45 kt
W.Decomp.*RWY 20: 14.5 kt HW 28.5 kt LCW
W.Rank150° ranks 25
Current wind is above 150° avg. (10.6)
Visibility6437 m
Phenomena:Light Freezing Rain
Clouds:Overcast 031 Hf
Expected CloudBase > 2,400 ft AGL from Temp-Dew spread
Ceiling3,100 ft
Temp-6°C (ISA -20)
Dew Point-12°C (63% RH)
AAT-20.7°C
QNH1002 hPa
Density Alt-1,588 ft
Elevation479 ft
Report Wrong Elevation
Raw Report
PACZ 210555Z AUTO 15032G45KT 4SM -FZRA OVC031 M06/M12 A2960=

Extra information for PACZ:More info

Metar Taf Metar & Taf Last 4 Metars F.Rules Stats Wind Profile Meteogram Temp Stats Airport Information Weather charts Add Link Nearby VenuesMetar ALERT Operation Metar Decoded Social comments

AIRNAV info for PACZ